Sanderson, Florida
Current Conditions -  °F | °C
As of 12:55 AM on Friday 31 Oct 2014 (Local Time) from KLCQ Reporting Station
Overcast Overcast  
Wind Chill: 63°   Ceiling: 4100
Heat Index: 63°   Visibility: 10mi
Dew Point: 50°   Wind: 7mph
Humidity: 63%   Direction: 340°NNW
Pressure: 29.92"   Gusts: NA
Location:  30.25°N, 82.27°W
Report Text: KLCQ 310455Z AUTO 34006KT 10SM OVC041 17/10 A2992 RMK AO2
Loading
Personal Weather Stations






























Interactive Weather Map
Tropical Storm Tracking
New forecast layout! Learn more

10-Day Weather Forecast

Advertisements
Track Severe Weather on mobile